Time;durP1;ratioP1;P1;durP2;ratioP2;P2;SDS_P1;SDS_P2;PMS_P1;PMS_P2;Temp;Humidity;BMP_temperature;BMP_pressure;BME280_temperature;BME280_humidity;BME280_pressure;Samples;Min_cycle;Max_cycle;Signal;HPM_P1;HPM_P2
2021/10/23 00:01:51;;;;;;;21.98;11.45;;;16.40;99.90;;;;;;5013645;28;20445;-85
2021/10/23 00:04:17;;;;;;;20.00;10.90;;;16.40;99.90;;;;;;5013450;28;20041;-85
2021/10/23 00:06:42;;;;;;;22.20;11.15;;;16.30;99.90;;;;;;5013448;28;20040;-84
2021/10/23 00:09:08;;;;;;;16.42;10.07;;;16.30;99.90;;;;;;5013461;28;20119;-75
2021/10/23 00:11:34;;;;;;;15.18;9.73;;;16.30;99.90;;;;;;5013335;28;20033;-82
2021/10/23 00:13:59;;;;;;;19.50;10.88;;;16.20;99.90;;;;;;5013694;28;20045;-83
2021/10/23 00:16:25;;;;;;;14.55;9.52;;;16.20;99.90;;;;;;4995751;28;20026;-76
2021/10/23 00:18:51;;;;;;;17.60;9.23;;;16.20;99.90;;;;;;5013493;28;20084;-82
2021/10/23 00:21:16;;;;;;;17.38;9.20;;;16.20;99.90;;;;;;5013169;28;20022;-85
2021/10/23 00:23:42;;;;;;;15.00;8.73;;;16.10;99.90;;;;;;5010685;28;20058;-81
2021/10/23 00:26:08;;;;;;;18.92;9.00;;;16.10;99.90;;;;;;5011964;28;20034;-83
2021/10/23 00:28:34;;;;;;;15.65;9.23;;;16.10;99.90;;;;;;5011576;28;20030;-84
2021/10/23 00:30:59;;;;;;;20.10;8.98;;;16.00;99.90;;;;;;5012001;28;20038;-79
2021/10/23 00:33:25;;;;;;;13.73;9.32;;;16.00;99.90;;;;;;5012748;28;20037;-79
2021/10/23 00:35:51;;;;;;;21.08;9.52;;;15.90;99.90;;;;;;5012622;28;20018;-83
2021/10/23 00:38:16;;;;;;;24.50;9.45;;;15.90;99.90;;;;;;5011397;28;20030;-84
2021/10/23 00:40:42;;;;;;;14.80;9.68;;;15.90;99.90;;;;;;5010916;28;20478;-84
2021/10/23 00:43:08;;;;;;;14.65;10.20;;;15.90;99.90;;;;;;5011184;28;20025;-84
2021/10/23 00:45:34;;;;;;;11.80;8.65;;;15.90;99.90;;;;;;5011297;28;20497;-79
2021/10/23 00:47:59;;;;;;;18.77;8.18;;;15.90;99.90;;;;;;5011183;28;20034;-81
2021/10/23 00:50:25;;;;;;;17.90;9.45;;;15.90;99.90;;;;;;5011631;28;20033;-83
2021/10/23 00:52:51;;;;;;;18.98;10.30;;;15.90;99.90;;;;;;5011254;28;20101;-84
2021/10/23 00:55:19;;;;;;;17.13;9.18;;;15.80;99.90;;;;;;5012109;28;20167;-83
2021/10/23 00:57:44;;;;;;;25.02;8.90;;;15.80;99.90;;;;;;5012419;28;20390;-84
2021/10/23 01:00:10;;;;;;;14.75;8.65;;;15.80;99.90;;;;;;5014577;28;20049;-84
2021/10/23 01:02:36;;;;;;;15.68;9.63;;;15.80;99.90;;;;;;4992673;28;20034;-84
2021/10/23 01:05:04;;;;;;;17.58;9.07;;;15.80;99.90;;;;;;5005600;28;20110;-84
2021/10/23 01:07:30;;;;;;;17.13;9.55;;;15.70;99.90;;;;;;5015134;28;20033;-83
2021/10/23 01:09:56;;;;;;;28.10;9.00;;;15.70;99.90;;;;;;5011963;28;20026;-83
2021/10/23 01:12:22;;;;;;;18.48;7.40;;;15.70;99.90;;;;;;5015253;28;20038;-84
2021/10/23 01:14:48;;;;;;;25.00;8.32;;;15.70;99.90;;;;;;5011959;28;20395;-79
2021/10/23 01:17:20;;;;;;;25.15;9.70;;;15.70;99.90;;;;;;5014931;28;20037;-83
2021/10/23 01:19:51;;;;;;;13.18;9.20;;;15.70;99.90;;;;;;5013647;28;20043;-83
2021/10/23 01:22:27;;;;;;;15.45;8.63;;;15.70;99.90;;;;;;5008492;28;20023;-83
2021/10/23 01:24:53;;;;;;;15.13;9.30;;;15.60;99.90;;;;;;5012747;28;20057;-83
2021/10/23 01:27:19;;;;;;;18.60;8.80;;;15.70;99.90;;;;;;5015617;28;20026;-82
2021/10/23 01:29:45;;;;;;;11.25;8.55;;;15.60;99.90;;;;;;5014992;28;20037;-81
2021/10/23 01:32:10;;;;;;;23.02;8.48;;;15.60;99.90;;;;;;5016467;28;20052;-82
2021/10/23 01:34:36;;;;;;;17.83;8.35;;;15.50;99.90;;;;;;5016169;28;20034;-84
2021/10/23 01:37:02;;;;;;;13.75;7.50;;;15.50;99.90;;;;;;5015955;28;20164;-81
2021/10/23 01:39:31;;;;;;;19.70;8.13;;;15.50;99.90;;;;;;5016251;28;20486;-82
2021/10/23 01:41:57;;;;;;;19.13;8.90;;;15.40;99.90;;;;;;5016204;28;20053;-80
2021/10/23 01:44:26;;;;;;;19.35;8.65;;;15.40;99.90;;;;;;5016147;28;20185;-78
2021/10/23 01:46:52;;;;;;;14.68;8.65;;;15.40;99.90;;;;;;5006394;28;20062;-75
2021/10/23 01:49:17;;;;;;;15.00;8.82;;;15.40;99.90;;;;;;5014283;28;20033;-82
2021/10/23 01:51:43;;;;;;;23.80;8.60;;;15.40;99.90;;;;;;4998186;28;20026;-83
2021/10/23 01:54:10;;;;;;;13.00;7.80;;;15.40;99.90;;;;;;5015631;28;20129;-84
2021/10/23 01:56:39;;;;;;;17.23;9.25;;;15.40;99.90;;;;;;4998360;28;20022;-83
2021/10/23 01:59:05;;;;;;;15.75;8.25;;;15.40;99.90;;;;;;5014939;28;20558;-84
2021/10/23 02:01:31;;;;;;;20.92;8.15;;;15.40;99.90;;;;;;5015414;28;20040;-83
2021/10/23 02:03:56;;;;;;;13.88;8.50;;;15.40;99.90;;;;;;5015059;28;20034;-81
2021/10/23 02:06:22;;;;;;;13.93;7.65;;;15.40;99.90;;;;;;5015352;28;20049;-82
2021/10/23 02:08:49;;;;;;;17.13;8.38;;;15.30;99.90;;;;;;5014202;28;20479;-76
2021/10/23 02:11:15;;;;;;;15.80;7.05;;;15.30;99.90;;;;;;5013937;28;20026;-84
2021/10/23 02:13:41;;;;;;;11.43;7.80;;;15.20;99.90;;;;;;5013994;28;20030;-82
2021/10/23 02:16:07;;;;;;;18.13;7.43;;;15.20;99.90;;;;;;5013939;28;20029;-84
2021/10/23 02:18:33;;;;;;;14.32;8.23;;;15.20;99.90;;;;;;5013903;28;20499;-81
2021/10/23 02:20:59;;;;;;;14.85;8.25;;;15.20;99.90;;;;;;5013740;28;20382;-81
2021/10/23 02:23:25;;;;;;;11.52;8.43;;;15.20;99.90;;;;;;5013532;28;20509;-74
2021/10/23 02:25:50;;;;;;;13.52;7.88;;;15.20;99.90;;;;;;5013589;28;20413;-83
2021/10/23 02:28:17;;;;;;;14.10;7.72;;;15.20;99.90;;;;;;5013743;28;20193;-84
2021/10/23 02:30:43;;;;;;;13.70;7.97;;;15.20;99.90;;;;;;5013386;28;20041;-84
2021/10/23 02:33:09;;;;;;;13.95;7.63;;;15.20;99.90;;;;;;5013457;28;20034;-84
2021/10/23 02:35:34;;;;;;;15.25;8.30;;;15.20;99.90;;;;;;5013538;28;20041;-83
2021/10/23 02:38:00;;;;;;;11.57;8.70;;;15.10;99.90;;;;;;5013640;28;20037;-82
2021/10/23 02:40:26;;;;;;;20.50;9.43;;;15.10;99.90;;;;;;5005898;28;20029;-82
2021/10/23 02:42:52;;;;;;;13.48;8.45;;;15.10;99.90;;;;;;5012406;28;20149;-81
2021/10/23 02:45:18;;;;;;;24.08;8.95;;;15.00;99.90;;;;;;5014542;28;20133;-84
2021/10/23 02:47:44;;;;;;;19.80;7.72;;;15.00;99.90;;;;;;5014931;28;20029;-81
2021/10/23 02:50:10;;;;;;;9.98;7.38;;;15.00;99.90;;;;;;5014809;28;20030;-82
2021/10/23 02:52:36;;;;;;;13.40;8.13;;;15.00;99.90;;;;;;5014975;28;20044;-78
2021/10/23 02:55:02;;;;;;;11.05;7.53;;;14.90;99.90;;;;;;5014666;28;20022;-84
2021/10/23 02:57:28;;;;;;;9.20;7.43;;;15.00;99.90;;;;;;5014637;28;20061;-83
2021/10/23 02:59:53;;;;;;;14.52;8.57;;;15.00;99.90;;;;;;5014503;28;20474;-84
2021/10/23 03:02:19;;;;;;;10.70;7.65;;;15.00;99.90;;;;;;5014498;28;20030;-83
2021/10/23 03:04:45;;;;;;;15.90;7.55;;;15.00;99.90;;;;;;5013770;28;20046;-82
2021/10/23 03:07:11;;;;;;;10.35;7.80;;;14.90;99.90;;;;;;5014248;28;20038;-84
2021/10/23 03:09:36;;;;;;;11.98;7.45;;;14.80;99.90;;;;;;5014179;28;20033;-82
2021/10/23 03:12:02;;;;;;;10.55;7.47;;;14.80;99.90;;;;;;5013749;28;20036;-84
2021/10/23 03:14:28;;;;;;;11.27;7.57;;;14.80;99.90;;;;;;5014100;28;20100;-84
2021/10/23 03:16:54;;;;;;;22.15;7.10;;;14.90;99.90;;;;;;5014183;28;20605;-82
2021/10/23 03:19:19;;;;;;;12.43;7.47;;;14.80;99.90;;;;;;5014213;28;20038;-81
2021/10/23 03:21:45;;;;;;;13.25;7.43;;;14.80;99.90;;;;;;5013706;28;20034;-84
2021/10/23 03:24:11;;;;;;;16.17;8.60;;;14.70;99.90;;;;;;5013690;28;20026;-83
2021/10/23 03:26:37;;;;;;;13.00;8.05;;;14.70;99.90;;;;;;5013970;28;20030;-84
2021/10/23 03:29:02;;;;;;;10.57;6.70;;;14.70;99.90;;;;;;5014003;28;20026;-77
2021/10/23 03:31:28;;;;;;;13.70;7.95;;;14.70;99.90;;;;;;5013909;28;20041;-79
2021/10/23 03:33:54;;;;;;;13.52;6.80;;;14.70;99.90;;;;;;5013748;28;20030;-81
2021/10/23 03:36:20;;;;;;;12.40;7.43;;;14.70;99.90;;;;;;5013684;28;20026;-83
2021/10/23 03:38:46;;;;;;;12.05;7.43;;;14.70;99.90;;;;;;5013513;28;20030;-82
2021/10/23 03:41:12;;;;;;;13.57;8.38;;;14.60;99.90;;;;;;5013801;28;20340;-84
2021/10/23 03:43:37;;;;;;;11.93;7.63;;;14.50;99.90;;;;;;5013907;28;20037;-79
2021/10/23 03:46:05;;;;;;;11.52;7.97;;;14.50;99.90;;;;;;5013808;28;20037;-83
2021/10/23 03:48:30;;;;;;;12.38;8.90;;;14.60;99.90;;;;;;5013252;28;20399;-83
2021/10/23 03:50:56;;;;;;;16.15;9.65;;;14.60;99.90;;;;;;5009055;28;20040;-83
2021/10/23 03:53:22;;;;;;;17.88;9.60;;;14.50;99.90;;;;;;5013517;28;20363;-83
2021/10/23 03:55:48;;;;;;;14.32;8.23;;;14.50;99.90;;;;;;5013349;28;20040;-79
2021/10/23 03:58:13;;;;;;;17.65;9.48;;;14.50;99.90;;;;;;5012952;28;20030;-83
2021/10/23 04:00:39;;;;;;;12.32;8.45;;;14.40;99.90;;;;;;5012976;28;20057;-83
2021/10/23 04:03:05;;;;;;;15.43;8.18;;;14.50;99.90;;;;;;5013314;28;20579;-83
2021/10/23 04:05:31;;;;;;;12.27;7.97;;;14.50;99.90;;;;;;5013295;28;20046;-83
2021/10/23 04:07:57;;;;;;;13.10;8.05;;;14.50;99.90;;;;;;5013255;28;20065;-83
2021/10/23 04:10:23;;;;;;;12.38;7.63;;;14.60;99.90;;;;;;5013232;28;20559;-83
2021/10/23 04:12:48;;;;;;;9.40;7.40;;;14.60;99.90;;;;;;4995702;28;20046;-82
2021/10/23 04:15:14;;;;;;;12.90;7.93;;;14.50;99.90;;;;;;5013345;28;20025;-81
2021/10/23 04:17:40;;;;;;;12.43;7.45;;;14.50;99.90;;;;;;5013243;28;20498;-82
2021/10/23 04:20:06;;;;;;;13.20;7.25;;;14.60;99.90;;;;;;5013223;28;20073;-76
2021/10/23 04:22:32;;;;;;;15.55;8.60;;;14.50;99.90;;;;;;5013213;28;20026;-83
2021/10/23 04:24:58;;;;;;;11.25;7.70;;;14.50;99.90;;;;;;5012740;28;20044;-81
2021/10/23 04:27:24;;;;;;;11.18;7.43;;;14.50;99.90;;;;;;5013141;28;20505;-81
2021/10/23 04:29:50;;;;;;;13.27;7.28;;;14.60;99.90;;;;;;5013006;28;20491;-83
2021/10/23 04:32:16;;;;;;;11.85;7.72;;;14.50;99.90;;;;;;5012645;28;20057;-83
2021/10/23 04:34:42;;;;;;;9.88;7.32;;;14.50;99.90;;;;;;5012875;28;20037;-80
2021/10/23 04:37:08;;;;;;;13.32;7.07;;;14.50;99.90;;;;;;5012877;28;20056;-82
2021/10/23 04:39:34;;;;;;;10.95;6.78;;;14.50;99.90;;;;;;5012514;28;20070;-84
2021/10/23 04:42:00;;;;;;;14.15;7.90;;;14.50;99.90;;;;;;5012661;28;20022;-81
2021/10/23 04:44:26;;;;;;;12.13;7.13;;;14.50;99.90;;;;;;5012797;28;20033;-74
2021/10/23 04:46:52;;;;;;;13.05;7.18;;;14.50;99.90;;;;;;5012856;28;20080;-83
2021/10/23 04:49:18;;;;;;;12.65;7.13;;;14.60;99.90;;;;;;5012602;28;20065;-81
2021/10/23 04:51:43;;;;;;;9.50;6.57;;;14.60;99.90;;;;;;5012453;28;20062;-81
2021/10/23 04:54:10;;;;;;;10.75;6.57;;;14.60;99.90;;;;;;5012700;28;20037;-80
2021/10/23 04:56:36;;;;;;;8.75;6.82;;;14.70;99.90;;;;;;5013018;28;20069;-83
2021/10/23 04:59:02;;;;;;;10.55;6.70;;;14.70;99.90;;;;;;5012955;28;20053;-83
2021/10/23 05:01:27;;;;;;;10.52;6.95;;;14.70;99.90;;;;;;5012788;28;20471;-83
2021/10/23 05:03:53;;;;;;;10.70;6.43;;;14.70;99.90;;;;;;5012796;28;20164;-81
2021/10/23 05:06:20;;;;;;;7.65;5.60;;;14.70;99.90;;;;;;5012846;28;20049;-82
2021/10/23 05:08:45;;;;;;;11.32;6.43;;;14.80;99.90;;;;;;5012899;28;20029;-83
2021/10/23 05:11:12;;;;;;;10.35;6.25;;;14.80;99.90;;;;;;5012581;28;20034;-83
2021/10/23 05:13:37;;;;;;;11.10;5.85;;;14.90;99.90;;;;;;5012732;28;20030;-81
2021/10/23 05:16:03;;;;;;;9.15;6.15;;;14.90;99.90;;;;;;5012777;28;20036;-77
2021/10/23 05:18:29;;;;;;;8.20;5.95;;;14.90;99.90;;;;;;5012249;28;20177;-81
2021/10/23 05:20:55;;;;;;;10.38;5.78;;;14.90;99.90;;;;;;5012385;28;20026;-82
2021/10/23 05:23:20;;;;;;;13.73;6.60;;;14.80;99.90;;;;;;5012633;28;20125;-80
2021/10/23 05:25:47;;;;;;;15.70;6.78;;;14.80;99.90;;;;;;5012703;28;20022;-82
2021/10/23 05:28:13;;;;;;;11.43;6.03;;;14.80;99.90;;;;;;5012976;28;20352;-82
2021/10/23 05:30:38;;;;;;;10.93;6.70;;;14.80;99.90;;;;;;5012085;28;20030;-74
2021/10/23 05:33:04;;;;;;;13.20;6.43;;;14.80;99.90;;;;;;5012481;28;20108;-82
2021/10/23 05:35:30;;;;;;;8.32;6.43;;;14.80;99.90;;;;;;5013012;28;20080;-82
2021/10/23 05:37:56;;;;;;;7.90;6.03;;;14.80;99.90;;;;;;5012529;28;20058;-80
2021/10/23 05:40:22;;;;;;;8.18;5.97;;;14.90;99.90;;;;;;4994588;28;20030;-84
2021/10/23 05:42:47;;;;;;;7.20;5.53;;;14.90;99.90;;;;;;5012225;28;20478;-79
2021/10/23 05:45:13;;;;;;;7.75;5.18;;;15.00;99.90;;;;;;5012561;28;20034;-81
2021/10/23 05:47:39;;;;;;;7.35;5.25;;;15.00;99.90;;;;;;5016283;28;20124;-81
2021/10/23 05:50:07;;;;;;;8.73;4.97;;;15.10;99.90;;;;;;5015975;28;20041;-83
2021/10/23 05:52:33;;;;;;;10.70;4.78;;;15.20;99.90;;;;;;5015973;28;20029;-81
2021/10/23 05:54:59;;;;;;;10.77;5.20;;;15.20;99.90;;;;;;5015740;28;20038;-78
2021/10/23 05:57:25;;;;;;;5.90;4.93;;;15.20;99.90;;;;;;5015567;28;20494;-83
2021/10/23 05:59:51;;;;;;;8.02;5.07;;;15.30;99.90;;;;;;5015790;28;20368;-84
2021/10/23 06:02:29;;;;;;;7.75;4.68;;;15.50;99.90;;;;;;5015831;28;20020;-83
2021/10/23 06:05:02;;;;;;;6.05;4.82;;;15.80;99.90;;;;;;5015348;28;20104;-83
2021/10/23 06:07:31;;;;;;;6.88;4.65;;;16.10;99.90;;;;;;5015588;28;20088;-77
2021/10/23 06:09:59;;;;;;;7.35;4.70;;;16.40;99.90;;;;;;5015671;28;20038;-81
2021/10/23 06:12:25;;;;;;;6.25;4.57;;;16.70;99.90;;;;;;5015616;28;20033;-84
2021/10/23 06:14:54;;;;;;;8.75;4.38;;;17.00;99.90;;;;;;5015802;28;20572;-84
2021/10/23 06:17:21;;;;;;;7.68;3.95;;;17.40;99.90;;;;;;5015427;28;20022;-83
2021/10/23 06:19:46;;;;;;;4.78;3.97;;;17.90;99.90;;;;;;4997898;28;20443;-85
2021/10/23 06:22:12;;;;;;;8.23;4.30;;;18.20;99.90;;;;;;5015913;28;20084;-83
2021/10/23 06:24:38;;;;;;;6.40;4.20;;;18.40;99.90;;;;;;5015041;28;20545;-83
2021/10/23 06:27:04;;;;;;;8.52;3.95;;;18.70;99.90;;;;;;5014735;28;20030;-83
2021/10/23 06:29:30;;;;;;;5.15;4.40;;;18.90;99.90;;;;;;5016200;28;20034;-80
2021/10/23 06:31:56;;;;;;;8.32;3.83;;;19.10;99.90;;;;;;5015797;28;20026;-84
2021/10/23 06:34:22;;;;;;;5.13;4.18;;;19.30;99.90;;;;;;5015170;28;20026;-83
2021/10/23 06:36:47;;;;;;;5.72;3.63;;;19.60;99.90;;;;;;5015573;28;20359;-83
2021/10/23 06:39:13;;;;;;;6.60;4.68;;;19.70;99.90;;;;;;5015029;28;20033;-80
2021/10/23 06:41:39;;;;;;;9.40;3.83;;;20.20;99.90;;;;;;5015078;28;20456;-78
2021/10/23 06:44:07;;;;;;;3.92;3.53;;;20.40;99.90;;;;;;5015194;28;20046;-84
2021/10/23 06:46:37;;;;;;;4.78;3.47;;;20.50;99.90;;;;;;5014927;28;20113;-83
2021/10/23 06:49:04;;;;;;;8.68;4.03;;;20.80;99.90;;;;;;5001232;28;20026;-86
2021/10/23 06:51:30;;;;;;;6.35;4.18;;;21.00;99.90;;;;;;5014673;28;20113;-83
2021/10/23 06:53:56;;;;;;;10.57;4.15;;;21.00;99.90;;;;;;5015115;28;20041;-77
2021/10/23 06:56:23;;;;;;;5.50;4.00;;;21.10;99.90;;;;;;5014626;28;20041;-83
2021/10/23 06:58:49;;;;;;;6.95;3.97;;;21.00;99.90;;;;;;5014222;28;20068;-77
2021/10/23 07:01:14;;;;;;;6.82;4.13;;;20.90;99.90;;;;;;5014439;28;20402;-83
2021/10/23 07:03:40;;;;;;;4.85;4.03;;;21.00;99.90;;;;;;5014545;28;20096;-80
2021/10/23 07:06:06;;;;;;;4.85;3.85;;;21.20;99.90;;;;;;5014551;28;20474;-83
2021/10/23 07:08:31;;;;;;;8.60;4.05;;;21.40;99.90;;;;;;5014288;28;20430;-81
2021/10/23 07:10:57;;;;;;;5.85;4.47;;;21.30;99.90;;;;;;5014183;28;20034;-80
2021/10/23 07:13:23;;;;;;;8.30;4.10;;;21.30;99.90;;;;;;5016028;28;20022;-81
2021/10/23 07:15:49;;;;;;;9.55;4.63;;;20.70;99.90;;;;;;5014314;28;20041;-82
2021/10/23 07:18:15;;;;;;;6.20;3.85;;;19.70;99.90;;;;;;5014537;28;20037;-82
2021/10/23 07:20:42;;;;;;;8.98;4.63;;;18.90;99.90;;;;;;5014360;28;20100;-77
2021/10/23 07:23:08;;;;;;;6.05;4.25;;;18.40;99.90;;;;;;5014551;28;20030;-74
2021/10/23 07:25:33;;;;;;;8.05;3.97;;;18.40;99.90;;;;;;5014287;28;20026;-72
2021/10/23 07:27:59;;;;;;;8.32;4.63;;;18.60;99.90;;;;;;5014279;28;20042;-75
2021/10/23 07:30:25;;;;;;;7.95;5.03;;;18.50;99.90;;;;;;5014006;28;20041;-74
2021/10/23 07:32:50;;;;;;;6.45;4.50;;;18.40;99.90;;;;;;5014185;28;20041;-73
2021/10/23 07:35:17;;;;;;;15.13;4.53;;;18.30;99.90;;;;;;5014070;28;20466;-78
2021/10/23 07:37:44;;;;;;;10.35;5.00;;;18.10;99.90;;;;;;5014035;28;20471;-73
2021/10/23 07:40:12;;;;;;;8.25;4.20;;;18.10;99.90;;;;;;5013892;28;20474;-76
2021/10/23 07:42:39;;;;;;;6.53;4.20;;;17.90;99.90;;;;;;5013315;28;20041;-75
2021/10/23 07:45:07;;;;;;;8.30;4.82;;;18.00;99.90;;;;;;5012607;28;20486;-73
2021/10/23 07:47:34;;;;;;;3.97;3.03;;;18.40;99.90;;;;;;5011390;28;20022;-76
2021/10/23 07:50:00;;;;;;;5.68;3.80;;;18.90;99.90;;;;;;5010936;28;20387;-79
2021/10/23 07:52:26;;;;;;;4.72;3.70;;;19.20;99.90;;;;;;5013126;28;20037;-82
2021/10/23 07:54:51;;;;;;;9.63;3.53;;;19.50;99.90;;;;;;5012934;28;20030;-82
2021/10/23 07:57:17;;;;;;;8.60;3.05;;;19.30;99.90;;;;;;5013238;28;20026;-77
2021/10/23 07:59:46;;;;;;;3.65;2.85;;;19.20;99.90;;;;;;5013287;28;20121;-77
2021/10/23 08:02:12;;;;;;;3.90;3.05;;;19.00;99.90;;;;;;5013053;28;20108;-80
2021/10/23 08:04:38;;;;;;;4.25;3.03;;;19.10;99.90;;;;;;5013144;28;20117;-78
2021/10/23 08:07:05;;;;;;;4.57;2.70;;;19.40;99.90;;;;;;5012754;28;20038;-79
2021/10/23 08:09:32;;;;;;;6.53;2.30;;;19.80;99.90;;;;;;4995356;28;20482;-77
2021/10/23 08:11:58;;;;;;;4.38;3.10;;;20.00;99.90;;;;;;5013281;28;20034;-75
2021/10/23 08:14:24;;;;;;;3.78;2.90;;;20.10;99.90;;;;;;5012941;28;20041;-74
2021/10/23 08:16:50;;;;;;;2.92;2.25;;;20.00;99.90;;;;;;5013023;28;20521;-76
2021/10/23 08:19:16;;;;;;;2.30;2.10;;;20.00;99.90;;;;;;5012694;28;20092;-76
2021/10/23 08:21:42;;;;;;;4.93;2.22;;;20.10;99.90;;;;;;5012594;28;20021;-77
2021/10/23 08:24:09;;;;;;;2.33;1.85;;;20.50;99.90;;;;;;5012400;28;20030;-77
2021/10/23 08:26:34;;;;;;;3.17;2.35;;;20.70;99.90;;;;;;5012373;28;20026;-74
2021/10/23 08:29:00;;;;;;;1.70;1.60;;;21.20;99.90;;;;;;5010505;28;20026;-80
2021/10/23 08:31:26;;;;;;;4.22;1.70;;;22.00;99.90;;;;;;5009362;28;20042;-78
2021/10/23 08:33:54;;;;;;;4.18;2.35;;;23.10;99.90;;;;;;5010796;28;20022;-78
2021/10/23 08:36:20;;;;;;;2.03;1.60;;;24.20;99.90;;;;;;5011825;28;20395;-80
2021/10/23 08:38:46;;;;;;;2.47;1.85;;;25.20;99.90;;;;;;5012301;28;20030;-79
2021/10/23 08:41:12;;;;;;;2.05;1.45;;;26.70;99.90;;;;;;5011769;28;20037;-83
2021/10/23 08:43:42;;;;;;;2.50;1.30;;;28.00;99.90;;;;;;5008688;28;20026;-81
2021/10/23 08:46:13;;;;;;;2.05;1.00;;;28.50;99.90;;;;;;4993028;28;20132;-79
2021/10/23 08:48:40;;;;;;;1.77;1.00;;;28.20;99.90;;;;;;5011055;28;20030;-76
2021/10/23 08:51:10;;;;;;;0.98;0.70;;;28.80;99.90;;;;;;4991781;28;20045;-83
2021/10/23 08:53:40;;;;;;;1.00;0.77;;;29.30;99.90;;;;;;4996449;28;20038;-76
2021/10/23 08:56:08;;;;;;;0.70;0.60;;;30.00;99.60;;;;;;4996833;28;20097;-74
2021/10/23 08:58:34;;;;;;;0.63;0.57;;;30.20;98.10;;;;;;5011294;28;20128;-84
2021/10/23 09:01:00;;;;;;;1.30;0.75;;;30.60;97.20;;;;;;5013429;28;20084;-89
2021/10/23 09:03:26;;;;;;;0.98;0.63;;;30.30;96.20;;;;;;4986896;28;20790;-77
2021/10/23 09:05:52;;;;;;;2.50;1.77;;;29.70;96.40;;;;;;5013453;28;20069;-76
2021/10/23 09:08:19;;;;;;;2.40;1.05;;;30.20;96.30;;;;;;5017958;28;20037;-76
2021/10/23 09:10:49;;;;;;;2.58;1.63;;;29.80;95.70;;;;;;5014501;28;20386;-72
2021/10/23 09:13:30;;;;;;;4.97;1.33;;;30.40;95.30;;;;;;5012480;28;20101;-73
2021/10/23 09:15:56;;;;;;;0.40;0.40;;;31.50;93.50;;;;;;5010368;28;20026;-79
2021/10/23 09:18:45;;;;;;;0.98;0.57;;;32.30;92.30;;;;;;5013471;28;20045;-72
2021/10/23 09:21:21;;;;;;;0.73;0.60;;;32.10;91.40;;;;;;4996815;28;20042;-79
2021/10/23 09:23:48;;;;;;;1.75;0.65;;;31.40;91.50;;;;;;5016498;28;20119;-74
2021/10/23 09:26:31;;;;;;;0.40;0.40;;;31.80;91.10;;;;;;4994985;28;20038;-71
2021/10/23 09:29:20;;;;;;;4.72;1.20;;;31.30;90.90;;;;;;5004895;28;20061;-75
2021/10/23 09:31:50;;;;;;;1.10;1.00;;;31.60;90.60;;;;;;5003584;28;20053;-76
2021/10/23 09:34:19;;;;;;;0.30;0.30;;;33.30;89.30;;;;;;5002692;28;20030;-73
2021/10/23 09:36:53;;;;;;;2.75;0.52;;;34.30;85.30;;;;;;5019113;28;20374;-74
2021/10/23 09:39:27;;;;;;;0.32;0.32;;;32.80;85.90;;;;;;5018244;28;20125;-78
2021/10/23 09:42:05;;;;;;;1.00;0.50;;;31.70;88.10;;;;;;5020445;28;20030;-73
2021/10/23 09:44:30;;;;;;;0.40;0.40;;;32.30;85.80;;;;;;5020114;28;20072;-73
2021/10/23 09:46:57;;;;;;;0.55;0.40;;;32.60;85.50;;;;;;5020050;28;20026;-73
2021/10/23 09:49:23;;;;;;;1.65;0.50;;;33.50;83.80;;;;;;4990972;28;20056;-76
2021/10/23 09:52:04;;;;;;;0.60;0.45;;;34.30;81.90;;;;;;5014887;28;20029;-74
2021/10/23 09:54:29;;;;;;;0.45;0.45;;;33.70;81.10;;;;;;5014231;28;20034;-77
2021/10/23 09:56:56;;;;;;;0.17;0.15;;;33.30;81.10;;;;;;5014622;28;20391;-82
2021/10/23 09:59:34;;;;;;;0.20;0.20;;;33.20;81.10;;;;;;5015554;28;20054;-79
2021/10/23 10:02:02;;;;;;;0.50;0.20;;;34.20;78.80;;;;;;5014563;28;20101;-74
2021/10/23 10:04:29;;;;;;;1.27;0.50;;;34.00;78.20;;;;;;5015309;28;20100;-82
2021/10/23 10:06:54;;;;;;;2.72;0.30;;;33.50;78.10;;;;;;5015199;28;20026;-78
2021/10/23 10:09:24;;;;;;;2.22;0.50;;;30.30;79.20;;;;;;5015097;28;20081;-80
2021/10/23 10:11:53;;;;;;;3.38;0.50;;;27.90;84.70;;;;;;5014948;28;20066;-77
2021/10/23 10:14:23;;;;;;;2.15;0.70;;;25.90;88.70;;;;;;4997205;28;20034;-80
2021/10/23 10:16:49;;;;;;;0.65;0.65;;;24.70;90.70;;;;;;5008785;28;20073;-79
2021/10/23 10:19:16;;;;;;;2.90;1.90;;;23.80;91.50;;;;;;4997224;28;20053;-78
2021/10/23 10:21:42;;;;;;;4.40;2.03;;;23.00;92.50;;;;;;5008027;28;20541;-78
2021/10/23 10:24:23;;;;;;;1.90;0.90;;;22.70;93.10;;;;;;5012149;28;20040;-73
2021/10/23 10:27:04;;;;;;;1.30;0.55;;;22.30;93.60;;;;;;4996138;28;20022;-80
2021/10/23 10:29:54;;;;;;;1.55;1.42;;;22.00;93.50;;;;;;5013866;28;20088;-77
2021/10/23 10:32:32;;;;;;;1.95;0.50;;;21.60;94.00;;;;;;5012805;28;20109;-79
2021/10/23 10:43:05;;;;;;;0.80;0.80;;;20.90;95.70;;;;;;5013920;28;20026;-75
2021/10/23 10:45:46;;;;;;;2.05;1.52;;;20.60;95.80;;;;;;5013238;28;20029;-77
2021/10/23 10:48:29;;;;;;;4.95;2.92;;;20.50;96.00;;;;;;4995700;28;20030;-76
2021/10/23 10:50:58;;;;;;;1.15;1.05;;;20.50;95.70;;;;;;5013101;28;20038;-81
2021/10/23 10:53:29;;;;;;;3.95;0.93;;;20.30;95.80;;;;;;5011933;28;20540;-71
2021/10/23 10:56:14;;;;;;;1.83;1.33;;;20.20;95.80;;;;;;5007097;28;20076;-74
2021/10/23 10:58:47;;;;;;;2.17;1.80;;;20.00;96.00;;;;;;5014922;28;20600;-79
2021/10/23 11:01:30;;;;;;;1.95;1.13;;;20.00;96.40;;;;;;4999695;28;20034;-73
2021/10/23 11:03:58;;;;;;;1.23;0.82;;;20.00;96.30;;;;;;5006032;28;20026;-77
2021/10/23 11:06:46;;;;;;;4.13;1.10;;;20.00;96.50;;;;;;5013304;28;20046;-76
2021/10/23 11:09:12;;;;;;;1.73;0.90;;;19.90;96.30;;;;;;5012905;28;20053;-81
2021/10/23 11:11:43;;;;;;;5.78;0.85;;;20.00;96.40;;;;;;5013177;28;20478;-79
2021/10/23 11:14:10;;;;;;;;;;;19.60;96.60;;;;;;5014229;28;20065;-73
2021/10/23 11:16:38;;;;;;;5.80;0.82;;;19.60;96.20;;;;;;5012297;28;19940;-80
2021/10/23 11:19:04;;;;;;;4.60;0.80;;;19.60;96.30;;;;;;5017563;28;20037;-87
2021/10/23 11:21:34;;;;;;;4.18;1.73;;;19.60;97.00;;;;;;5012225;28;20038;-82
2021/10/23 11:24:00;;;;;;;5.78;1.20;;;19.40;97.10;;;;;;5013059;28;20084;-79
2021/10/23 11:26:25;;;;;;;2.85;1.08;;;19.20;97.40;;;;;;5013479;28;20029;-77
2021/10/23 11:28:51;;;;;;;1.65;1.05;;;19.10;97.70;;;;;;5013844;28;20030;-78
2021/10/23 11:31:22;;;;;;;3.92;1.10;;;19.30;97.70;;;;;;5010447;28;20383;-80
2021/10/23 11:33:48;;;;;;;2.15;1.30;;;19.20;97.50;;;;;;5013127;28;20022;-77
2021/10/23 11:36:19;;;;;;;3.08;1.20;;;19.20;97.70;;;;;;5012524;28;20033;-77
2021/10/23 11:38:54;;;;;;;4.63;1.95;;;19.20;97.90;;;;;;5013422;28;20085;-84
2021/10/23 11:41:25;;;;;;;1.83;1.35;;;19.00;97.70;;;;;;5007245;28;20394;-78
2021/10/23 11:44:08;;;;;;;1.70;1.27;;;19.00;97.90;;;;;;5010985;28;20037;-76
2021/10/23 11:46:35;;;;;;;3.72;1.20;;;18.90;98.40;;;;;;5011932;28;20260;-74
2021/10/23 11:49:06;;;;;;;0.93;0.63;;;19.00;98.10;;;;;;5012267;28;20120;-85
2021/10/23 11:51:32;;;;;;;1.55;0.90;;;18.90;97.90;;;;;;5011955;28;20030;-78
2021/10/23 11:54:02;;;;;;;2.80;0.90;;;18.90;97.90;;;;;;5012170;28;20529;-85
2021/10/23 11:56:28;;;;;;;2.97;1.30;;;18.90;97.80;;;;;;5012703;28;20081;-83
2021/10/23 11:58:58;;;;;;;2.50;1.10;;;18.80;98.10;;;;;;5013146;28;20069;-82
2021/10/23 12:01:26;;;;;;;2.63;1.52;;;18.60;98.40;;;;;;5017249;28;20499;-79
2021/10/23 12:03:59;;;;;;;5.78;0.73;;;18.60;98.50;;;;;;5016351;28;20163;-77
2021/10/23 12:06:26;;;;;;;4.53;0.88;;;18.60;98.60;;;;;;5022050;28;20050;-77
2021/10/23 12:09:13;;;;;;;1.90;0.77;;;18.60;98.60;;;;;;5019277;28;20045;-74
2021/10/23 12:11:38;;;;;;;0.60;0.60;;;18.60;98.30;;;;;;5016985;28;20034;-77
2021/10/23 12:14:11;;;;;;;1.00;0.70;;;18.60;98.40;;;;;;5015924;28;20040;-81
2021/10/23 12:16:38;;;;;;;0.93;0.57;;;18.60;98.60;;;;;;5016337;28;20033;-76
2021/10/23 12:19:09;;;;;;;1.10;0.82;;;18.50;98.70;;;;;;5015658;28;20796;-74
2021/10/23 12:21:50;;;;;;;2.28;0.90;;;18.40;98.90;;;;;;5015982;28;20430;-77
2021/10/23 12:24:25;;;;;;;2.88;0.93;;;18.40;99.20;;;;;;5016927;28;20036;-74
2021/10/23 12:27:03;;;;;;;3.65;0.80;;;18.40;99.10;;;;;;5016059;28;20033;-78
2021/10/23 12:29:39;;;;;;;4.50;0.75;;;18.20;99.50;;;;;;5016057;28;20033;-74
2021/10/23 12:32:13;;;;;;;1.10;0.90;;;18.10;99.70;;;;;;5016838;28;20033;-78
2021/10/23 12:34:48;;;;;;;1.55;0.80;;;18.00;99.60;;;;;;5015168;28;20105;-76
2021/10/23 12:37:15;;;;;;;2.67;1.00;;;17.90;99.60;;;;;;5013963;28;20030;-79
2021/10/23 12:39:41;;;;;;;4.93;0.80;;;17.80;99.90;;;;;;5017783;28;20042;-81
2021/10/23 12:42:07;;;;;;;4.90;1.00;;;17.70;99.80;;;;;;5016512;28;20041;-80
2021/10/23 12:44:33;;;;;;;1.30;0.80;;;17.60;99.80;;;;;;5016355;28;20041;-81
2021/10/23 12:46:59;;;;;;;7.55;0.90;;;17.40;99.90;;;;;;5014987;28;20391;-80
2021/10/23 12:49:25;;;;;;;2.42;0.95;;;17.40;99.90;;;;;;5011838;28;20106;-77
2021/10/23 12:51:51;;;;;;;2.85;1.02;;;17.30;99.90;;;;;;5011971;28;20058;-87
2021/10/23 12:54:18;;;;;;;1.95;0.90;;;17.30;99.90;;;;;;4994276;28;20030;-81